createdAt,value
2022-10-22T00:00:06.930Z,8.23
2022-10-22T00:03:02.838Z,8.22
2022-10-22T00:05:39.317Z,8.22
2022-10-22T00:08:15.606Z,8.22
2022-10-22T00:10:52.920Z,8.22
2022-10-22T00:13:29.231Z,8.23
2022-10-22T00:16:05.226Z,8.24
2022-10-22T00:18:41.439Z,8.24
2022-10-22T00:21:17.327Z,8.23
2022-10-22T00:23:53.165Z,8.23
2022-10-22T00:26:29.223Z,8.23
2022-10-22T00:29:05.076Z,8.23
2022-10-22T00:31:40.970Z,8.23
2022-10-22T00:34:17.151Z,8.23
2022-10-22T00:36:54.383Z,8.24
2022-10-22T00:39:32.134Z,8.24
2022-10-22T00:42:08.597Z,8.24
2022-10-22T00:45:21.982Z,8.22
2022-10-22T00:48:05.709Z,8.19
2022-10-22T00:50:48.197Z,8.18
2022-10-22T00:53:31.300Z,8.19
2022-10-22T00:56:08.993Z,8.18
2022-10-22T00:58:51.280Z,8.19
2022-10-22T01:01:32.817Z,8.18
2022-10-22T01:04:08.864Z,8.20
2022-10-22T01:06:44.825Z,8.20
2022-10-22T01:09:33.964Z,8.18
2022-10-22T01:12:20.306Z,8.15
2022-10-22T01:15:17.050Z,8.13
2022-10-22T01:18:03.700Z,8.12
2022-10-22T01:21:04.711Z,8.12
2022-10-22T01:24:31.233Z,8.13
2022-10-22T01:27:32.925Z,8.14
2022-10-22T01:30:14.116Z,8.15
2022-10-22T01:32:57.344Z,8.13
2022-10-22T01:35:39.269Z,8.08
2022-10-22T01:38:18.497Z,8.03
2022-10-22T01:40:55.849Z,7.98
2022-10-22T01:43:31.570Z,7.93
2022-10-22T01:46:13.509Z,7.87
2022-10-22T01:49:16.242Z,7.83
2022-10-22T01:52:16.702Z,7.78
2022-10-22T01:55:08.029Z,7.74
2022-10-22T01:57:58.104Z,7.69
2022-10-22T02:00:35.241Z,7.62
2022-10-22T02:03:22.817Z,7.57
2022-10-22T02:06:05.789Z,7.50
2022-10-22T02:08:40.538Z,7.42
2022-10-22T02:11:18.422Z,7.34
2022-10-22T02:14:02.388Z,7.27
2022-10-22T02:16:43.962Z,7.20
2022-10-22T02:19:28.940Z,7.14
2022-10-22T02:22:05.509Z,7.07
2022-10-22T02:24:41.771Z,7.01
2022-10-22T02:27:28.169Z,6.96
2022-10-22T02:30:09.861Z,6.91
2022-10-22T02:32:56.750Z,6.89
2022-10-22T02:35:34.232Z,6.84
2022-10-22T02:38:11.707Z,6.79
2022-10-22T02:40:48.082Z,6.74
2022-10-22T02:43:26.626Z,6.69
2022-10-22T02:46:02.549Z,6.64
2022-10-22T02:48:38.373Z,6.60
2022-10-22T02:51:14.600Z,6.56
2022-10-22T02:53:50.431Z,6.52
2022-10-22T02:56:26.223Z,6.48
2022-10-22T02:59:02.149Z,6.44
2022-10-22T03:01:38.023Z,6.41
2022-10-22T03:04:14.077Z,6.40
2022-10-22T03:06:49.904Z,6.38
2022-10-22T03:09:25.891Z,6.36
2022-10-22T03:12:01.743Z,6.28
2022-10-22T03:14:37.764Z,6.22
2022-10-22T03:17:14.594Z,6.16
2022-10-22T03:19:50.456Z,6.19
2022-10-22T03:22:31.874Z,6.28
2022-10-22T03:25:17.545Z,6.32
2022-10-22T03:27:57.120Z,6.31
2022-10-22T03:30:33.078Z,6.34
2022-10-22T03:33:09.073Z,6.24
2022-10-22T03:35:49.674Z,6.16
2022-10-22T03:38:26.032Z,6.18
2022-10-22T03:41:02.081Z,6.12
2022-10-22T03:43:41.698Z,6.02
2022-10-22T03:46:17.454Z,5.93
2022-10-22T03:48:53.434Z,5.85
2022-10-22T03:51:31.057Z,5.85
2022-10-22T03:54:07.632Z,5.81
2022-10-22T03:56:43.600Z,5.76
2022-10-22T03:59:19.672Z,5.72
2022-10-22T04:01:55.463Z,5.69
2022-10-22T04:04:31.380Z,5.68
2022-10-22T04:07:08.248Z,5.67
2022-10-22T04:09:44.046Z,5.67
2022-10-22T04:12:19.855Z,5.65
2022-10-22T04:14:55.898Z,5.63
2022-10-22T04:17:36.267Z,5.61
2022-10-22T04:20:14.705Z,5.60
2022-10-22T04:22:50.584Z,5.59
2022-10-22T04:25:26.496Z,5.58
2022-10-22T04:28:02.449Z,5.57
2022-10-22T04:30:38.813Z,5.55
2022-10-22T04:33:14.779Z,5.53
2022-10-22T04:35:50.610Z,5.55
2022-10-22T04:38:26.629Z,5.58
2022-10-22T04:41:11.808Z,5.54
2022-10-22T04:43:48.323Z,5.52
2022-10-22T04:46:25.921Z,5.52
2022-10-22T04:49:03.829Z,5.51
2022-10-22T04:51:39.673Z,5.52
2022-10-22T04:54:15.576Z,5.52
2022-10-22T04:56:51.412Z,5.53
2022-10-22T04:59:27.301Z,5.54
2022-10-22T05:02:03.094Z,5.56
2022-10-22T05:04:38.979Z,5.58
2022-10-22T05:07:15.373Z,5.61
2022-10-22T05:09:51.285Z,5.65
2022-10-22T05:12:27.158Z,5.69
2022-10-22T05:15:03.381Z,5.74
2022-10-22T05:17:41.411Z,5.78
2022-10-22T05:20:18.504Z,5.82
2022-10-22T05:22:54.427Z,5.85
2022-10-22T05:25:31.214Z,5.86
2022-10-22T05:28:07.267Z,5.89
2022-10-22T05:30:43.113Z,5.91
2022-10-22T05:33:23.334Z,5.91
2022-10-22T05:36:00.699Z,5.92
2022-10-22T05:38:38.549Z,5.93
2022-10-22T05:41:18.236Z,5.95
2022-10-22T05:43:58.047Z,5.97
2022-10-22T05:46:39.433Z,6.01
2022-10-22T05:49:19.349Z,6.06
2022-10-22T05:51:55.171Z,6.13
2022-10-22T05:54:31.064Z,6.21
2022-10-22T05:57:07.018Z,6.31
2022-10-22T05:59:43.198Z,6.43
2022-10-22T06:02:19.171Z,6.58
2022-10-22T06:04:54.990Z,6.73
2022-10-22T06:07:31.331Z,6.87
2022-10-22T06:10:10.226Z,7.02
2022-10-22T06:12:47.215Z,7.16
2022-10-22T06:15:23.819Z,7.26
2022-10-22T06:17:59.608Z,7.38
2022-10-22T06:20:36.511Z,7.50
2022-10-22T06:23:12.403Z,7.64
2022-10-22T06:25:58.686Z,7.77
2022-10-22T06:28:36.483Z,7.91
2022-10-22T06:31:13.257Z,8.07
2022-10-22T06:33:48.967Z,8.26
2022-10-22T06:36:27.040Z,8.41
2022-10-22T06:39:03.248Z,8.54
2022-10-22T06:41:39.001Z,8.70
2022-10-22T06:44:19.283Z,8.90
2022-10-22T06:46:56.794Z,9.08
2022-10-22T06:49:33.039Z,9.24
2022-10-22T06:52:09.252Z,9.53
2022-10-22T06:54:45.748Z,10.38
2022-10-22T06:57:21.792Z,11.52
2022-10-22T06:59:57.644Z,12.70
2022-10-22T07:02:33.524Z,13.83
2022-10-22T07:05:11.546Z,14.71
2022-10-22T07:07:47.378Z,15.33
2022-10-22T07:10:25.979Z,15.76
2022-10-22T07:13:04.568Z,16.14
2022-10-22T07:15:40.427Z,16.56
2022-10-22T07:18:16.408Z,17.15
2022-10-22T07:20:52.896Z,17.33
2022-10-22T07:23:30.535Z,17.19
2022-10-22T07:26:08.693Z,16.97
2022-10-22T07:28:45.124Z,16.73
2022-10-22T07:31:22.117Z,16.51
2022-10-22T07:33:58.710Z,16.29
2022-10-22T07:36:34.785Z,16.10
2022-10-22T07:39:10.742Z,15.92
2022-10-22T07:41:46.652Z,15.73
2022-10-22T07:44:22.524Z,15.56
2022-10-22T07:46:58.207Z,15.46
2022-10-22T07:49:34.415Z,15.42
2022-10-22T07:52:10.949Z,15.37
2022-10-22T07:54:46.894Z,15.27
2022-10-22T07:57:23.073Z,15.13
2022-10-22T07:59:59.674Z,14.98
2022-10-22T08:02:35.638Z,14.81
2022-10-22T08:05:14.509Z,14.61
2022-10-22T08:07:50.469Z,14.45
2022-10-22T08:10:26.332Z,14.35
2022-10-22T08:13:02.490Z,14.32
2022-10-22T08:15:38.846Z,14.38
2022-10-22T08:18:14.849Z,14.52
2022-10-22T08:20:50.846Z,14.65
2022-10-22T08:23:28.719Z,14.73
2022-10-22T08:26:04.849Z,14.76
2022-10-22T08:28:41.237Z,14.82
2022-10-22T08:31:17.394Z,14.93
2022-10-22T08:33:53.658Z,15.08
2022-10-22T08:36:29.403Z,15.17
2022-10-22T08:39:05.469Z,15.25
2022-10-22T08:41:55.208Z,15.39
2022-10-22T08:45:04.642Z,15.55
2022-10-22T08:48:05.051Z,15.65
2022-10-22T08:50:47.293Z,15.75
2022-10-22T08:53:31.809Z,15.89
2022-10-22T08:56:08.136Z,16.01
2022-10-22T08:58:50.751Z,16.06
2022-10-22T09:01:37.469Z,16.06
2022-10-22T09:04:25.553Z,16.01
2022-10-22T09:07:03.202Z,15.93
2022-10-22T09:09:48.876Z,15.80
2022-10-22T09:12:28.410Z,15.64
2022-10-22T09:15:04.748Z,15.52
2022-10-22T09:17:59.941Z,15.41
2022-10-22T09:20:50.625Z,15.31
2022-10-22T09:23:39.147Z,15.23
2022-10-22T09:26:20.224Z,15.23
2022-10-22T09:29:00.730Z,15.33
2022-10-22T09:31:37.604Z,15.50
2022-10-22T09:34:17.460Z,15.70
2022-10-22T09:37:02.750Z,15.87
2022-10-22T09:39:48.161Z,16.01
2022-10-22T09:42:25.903Z,16.12
2022-10-22T09:45:04.381Z,16.22
2022-10-22T09:48:00.622Z,16.23
2022-10-22T09:50:48.588Z,16.13
2022-10-22T09:53:30.703Z,16.03
2022-10-22T09:56:29.719Z,15.92
2022-10-22T09:59:07.918Z,15.78
2022-10-22T10:01:44.581Z,15.67
2022-10-22T10:04:20.961Z,15.57
2022-10-22T10:07:00.264Z,15.44
2022-10-22T10:09:39.108Z,15.31
2022-10-22T10:12:37.039Z,15.18
2022-10-22T10:15:29.575Z,15.08
2022-10-22T10:18:19.865Z,15.01
2022-10-22T10:21:10.885Z,14.98
2022-10-22T10:23:59.645Z,14.93
2022-10-22T10:26:51.621Z,14.88
2022-10-22T10:29:42.766Z,14.81
2022-10-22T10:32:45.283Z,14.73
2022-10-22T10:35:32.272Z,14.70
2022-10-22T10:38:33.431Z,14.66
2022-10-22T10:41:25.585Z,14.59
2022-10-22T10:44:26.149Z,14.52
2022-10-22T10:47:22.147Z,14.46
2022-10-22T10:50:17.792Z,14.43
2022-10-22T10:53:08.164Z,14.38
2022-10-22T10:56:00.946Z,14.35
2022-10-22T10:58:55.613Z,14.33
2022-10-22T11:01:43.938Z,14.30
2022-10-22T11:05:08.868Z,14.25
2022-10-22T11:07:56.142Z,14.18
2022-10-22T11:10:41.604Z,14.12
2022-10-22T11:13:27.512Z,14.09
2022-10-22T11:16:13.253Z,14.07
2022-10-22T11:18:58.899Z,14.05
2022-10-22T11:21:40.940Z,14.03
2022-10-22T11:24:24.059Z,14.01
2022-10-22T11:27:11.694Z,13.98
2022-10-22T11:29:57.891Z,13.97
2022-10-22T11:32:34.562Z,13.95
2022-10-22T11:35:20.167Z,13.92
2022-10-22T11:38:00.772Z,13.88
2022-10-22T11:40:45.317Z,13.83
2022-10-22T11:43:36.344Z,13.76
2022-10-22T11:46:44.609Z,13.71
2022-10-22T11:49:43.792Z,13.65
2022-10-22T11:52:54.519Z,13.60
2022-10-22T11:55:49.311Z,13.56
2022-10-22T11:58:44.044Z,13.51
2022-10-22T12:01:43.958Z,13.47
2022-10-22T12:04:43.207Z,13.43
2022-10-22T12:07:51.711Z,13.39
2022-10-22T12:10:36.167Z,13.37
2022-10-22T12:13:26.073Z,13.36
2022-10-22T12:16:06.701Z,13.34
2022-10-22T12:18:47.134Z,13.34
2022-10-22T12:21:23.080Z,13.34
2022-10-22T12:23:59.468Z,13.34
2022-10-22T12:26:36.675Z,13.32
2022-10-22T12:29:18.560Z,13.31
2022-10-22T12:31:52.865Z,13.31
2022-10-22T12:34:29.512Z,13.28
2022-10-22T12:37:08.857Z,13.26
2022-10-22T12:39:45.994Z,13.24
2022-10-22T12:42:23.901Z,13.22
2022-10-22T12:45:01.905Z,13.20
2022-10-22T12:47:37.839Z,13.19
2022-10-22T12:50:24.226Z,13.16
2022-10-22T12:53:00.376Z,13.09
2022-10-22T12:55:39.335Z,13.03
2022-10-22T12:58:23.325Z,12.99
2022-10-22T13:01:02.972Z,12.96
2022-10-22T13:03:45.919Z,12.94
2022-10-22T13:06:31.168Z,12.91
2022-10-22T13:09:23.895Z,12.89
2022-10-22T13:12:10.756Z,12.86
2022-10-22T13:14:49.006Z,12.83
2022-10-22T13:17:42.921Z,12.81
2022-10-22T13:20:26.697Z,12.80
2022-10-22T13:23:05.951Z,12.80
2022-10-22T13:25:42.307Z,12.80
2022-10-22T13:28:26.877Z,12.79
2022-10-22T13:31:11.063Z,12.75
2022-10-22T13:33:54.932Z,12.71
2022-10-22T13:36:31.045Z,12.68
2022-10-22T13:39:13.874Z,12.66
2022-10-22T13:41:51.326Z,12.64
2022-10-22T13:44:26.980Z,12.63
2022-10-22T13:47:02.843Z,12.63
2022-10-22T13:49:40.381Z,12.62
2022-10-22T13:52:30.940Z,12.59
2022-10-22T13:55:16.551Z,12.56
2022-10-22T13:57:53.436Z,12.54
2022-10-22T14:00:31.237Z,12.51
2022-10-22T14:03:10.609Z,12.49
2022-10-22T14:05:48.853Z,12.47
2022-10-22T14:08:28.254Z,12.46
2022-10-22T14:11:04.141Z,12.46
2022-10-22T14:13:40.712Z,12.47
2022-10-22T14:16:25.539Z,12.48
2022-10-22T14:19:02.293Z,12.49
2022-10-22T14:21:40.274Z,12.50
2022-10-22T14:24:17.785Z,12.49
2022-10-22T14:26:53.971Z,12.48
2022-10-22T14:29:30.600Z,12.44
2022-10-22T14:32:07.654Z,12.41
2022-10-22T14:34:45.865Z,12.37
2022-10-22T14:37:25.340Z,12.34
2022-10-22T14:40:02.672Z,12.29
2022-10-22T14:42:44.147Z,12.26
2022-10-22T14:45:27.046Z,12.23
2022-10-22T14:48:02.859Z,12.20
2022-10-22T14:50:38.882Z,12.19
2022-10-22T14:53:16.777Z,12.16
2022-10-22T14:55:55.659Z,12.13
2022-10-22T14:58:33.819Z,12.09
2022-10-22T15:01:11.092Z,12.05
2022-10-22T15:03:47.006Z,12.01
2022-10-22T15:06:22.759Z,11.97
2022-10-22T15:08:58.650Z,11.92
2022-10-22T15:11:34.647Z,11.92
2022-10-22T15:14:10.615Z,11.92
2022-10-22T15:16:46.666Z,11.89
2022-10-22T15:19:22.356Z,11.86
2022-10-22T15:21:58.183Z,11.84
2022-10-22T15:24:34.362Z,11.83
2022-10-22T15:27:10.543Z,11.82
2022-10-22T15:29:47.344Z,11.80
2022-10-22T15:32:23.620Z,11.77
2022-10-22T15:35:00.329Z,11.74
2022-10-22T15:37:38.960Z,11.71
2022-10-22T15:40:16.894Z,11.69
2022-10-22T15:42:52.869Z,11.67
2022-10-22T15:45:28.987Z,11.65
2022-10-22T15:48:06.479Z,11.63
2022-10-22T15:50:44.465Z,11.61
2022-10-22T15:53:20.952Z,11.60
2022-10-22T15:55:57.002Z,11.59
2022-10-22T15:58:33.331Z,11.57
2022-10-22T16:01:15.811Z,11.55
2022-10-22T16:04:00.230Z,11.57
2022-10-22T16:06:41.361Z,11.60
2022-10-22T16:09:21.744Z,11.60
2022-10-22T16:11:58.473Z,11.60
2022-10-22T16:14:34.561Z,11.59
2022-10-22T16:17:10.488Z,11.59
2022-10-22T16:19:46.546Z,11.59
2022-10-22T16:22:22.214Z,11.59
2022-10-22T16:24:58.264Z,11.59
2022-10-22T16:27:34.212Z,11.60
2022-10-22T16:30:12.978Z,11.59
2022-10-22T16:32:48.784Z,11.59
2022-10-22T16:35:24.611Z,11.59
2022-10-22T16:38:00.369Z,11.60
2022-10-22T16:40:36.294Z,11.60
2022-10-22T16:43:12.203Z,11.60
2022-10-22T16:45:54.595Z,11.61
2022-10-22T16:48:30.343Z,11.62
2022-10-22T16:51:13.759Z,11.63
2022-10-22T16:53:50.317Z,11.64
2022-10-22T16:56:26.927Z,11.66
2022-10-22T16:59:03.423Z,11.67
2022-10-22T17:01:41.429Z,11.68
2022-10-22T17:04:18.320Z,11.70
2022-10-22T17:06:54.216Z,11.71
2022-10-22T17:09:30.121Z,11.71
2022-10-22T17:12:06.637Z,11.72
2022-10-22T17:14:42.710Z,11.72
2022-10-22T17:17:18.572Z,11.73
2022-10-22T17:19:54.507Z,11.73
2022-10-22T17:22:30.918Z,11.74
2022-10-22T17:25:22.029Z,11.75
2022-10-22T17:27:57.907Z,11.75
2022-10-22T17:30:38.859Z,11.76
2022-10-22T17:33:14.875Z,11.76
2022-10-22T17:35:52.814Z,11.77
2022-10-22T17:38:29.165Z,11.78
2022-10-22T17:41:06.952Z,11.79
2022-10-22T17:46:24.585Z,11.79
2022-10-22T17:49:05.132Z,11.80
2022-10-22T17:51:41.579Z,11.82
2022-10-22T17:54:18.061Z,11.83
2022-10-22T17:56:53.726Z,11.85
2022-10-22T17:59:30.596Z,11.87
2022-10-22T18:02:06.944Z,11.88
2022-10-22T18:04:43.253Z,11.89
2022-10-22T18:07:20.800Z,11.90
2022-10-22T18:09:56.897Z,11.91
2022-10-22T18:12:32.709Z,11.92
2022-10-22T18:15:10.647Z,11.94
2022-10-22T18:17:47.145Z,11.96
2022-10-22T18:20:23.339Z,11.97
2022-10-22T18:23:00.699Z,11.98
2022-10-22T18:25:41.261Z,11.99
2022-10-22T18:28:19.441Z,12.00
2022-10-22T18:30:55.329Z,12.00
2022-10-22T18:33:32.525Z,12.01
2022-10-22T18:36:16.313Z,12.02
2022-10-22T18:38:56.558Z,12.01
2022-10-22T18:41:34.313Z,12.01
2022-10-22T18:44:13.704Z,12.02
2022-10-22T18:46:49.665Z,12.03
2022-10-22T18:49:25.824Z,12.04
2022-10-22T18:52:02.161Z,12.05
2022-10-22T18:54:40.218Z,12.05
2022-10-22T18:57:16.201Z,12.07
2022-10-22T18:59:54.656Z,12.08
2022-10-22T19:02:33.112Z,12.09
2022-10-22T19:05:10.637Z,12.09
2022-10-22T19:07:46.410Z,12.10
2022-10-22T19:10:22.730Z,12.09
2022-10-22T19:12:58.747Z,12.09
2022-10-22T19:15:34.546Z,12.08
2022-10-22T19:18:10.865Z,12.07
2022-10-22T19:20:48.915Z,12.06
2022-10-22T19:23:25.236Z,12.05
2022-10-22T19:26:12.078Z,12.04
2022-10-22T19:28:48.454Z,12.03
2022-10-22T19:31:27.541Z,12.02
2022-10-22T19:34:04.739Z,12.01
2022-10-22T19:36:41.075Z,12.00
2022-10-22T19:39:21.850Z,12.00
2022-10-22T19:41:57.604Z,11.99
2022-10-22T19:44:33.737Z,11.97
2022-10-22T19:47:10.287Z,11.95
2022-10-22T19:49:46.192Z,11.96
2022-10-22T19:52:22.226Z,11.95
2022-10-22T19:54:58.026Z,11.96
2022-10-22T19:57:35.136Z,11.95
2022-10-22T20:00:14.572Z,11.96
2022-10-22T20:02:51.235Z,11.97
2022-10-22T20:05:27.198Z,11.96
2022-10-22T20:08:03.720Z,11.95
2022-10-22T20:10:40.734Z,11.96
2022-10-22T20:13:23.351Z,11.94
2022-10-22T20:16:00.695Z,11.95
2022-10-22T20:18:38.604Z,11.95
2022-10-22T20:21:20.337Z,11.95
2022-10-22T20:23:59.554Z,11.95
2022-10-22T20:26:35.595Z,11.95
2022-10-22T20:29:14.225Z,11.95
2022-10-22T20:31:50.763Z,11.95
2022-10-22T20:34:26.924Z,11.95
2022-10-22T20:37:05.032Z,11.95
2022-10-22T20:39:40.987Z,11.94
2022-10-22T20:42:16.886Z,11.94
2022-10-22T20:44:53.586Z,11.94
2022-10-22T20:47:39.314Z,11.94
2022-10-22T20:50:31.437Z,11.95
2022-10-22T20:53:07.961Z,11.94
2022-10-22T20:55:43.947Z,11.94
2022-10-22T20:58:23.351Z,11.93
2022-10-22T21:01:09.586Z,11.93
2022-10-22T21:03:46.235Z,11.92
2022-10-22T21:06:23.359Z,11.91
2022-10-22T21:08:59.435Z,11.90
2022-10-22T21:11:35.296Z,11.90
2022-10-22T21:14:14.104Z,11.91
2022-10-22T21:16:52.939Z,11.92
2022-10-22T21:19:29.169Z,11.93
2022-10-22T21:22:04.878Z,11.94
2022-10-22T21:24:41.238Z,11.94
2022-10-22T21:27:17.025Z,11.95
2022-10-22T21:29:52.876Z,11.97
2022-10-22T21:32:28.901Z,11.98
2022-10-22T21:35:04.919Z,11.98
2022-10-22T21:37:41.108Z,11.99
2022-10-22T21:40:18.517Z,12.00
2022-10-22T21:42:55.329Z,12.01
2022-10-22T21:45:31.545Z,12.03
2022-10-22T21:48:08.424Z,12.04
2022-10-22T21:50:47.301Z,12.05
2022-10-22T21:53:23.856Z,12.05
2022-10-22T21:55:59.912Z,12.04
2022-10-22T21:58:38.476Z,12.05
2022-10-22T22:01:15.774Z,12.06
2022-10-22T22:03:53.989Z,12.07
2022-10-22T22:06:33.304Z,12.07
2022-10-22T22:09:10.460Z,12.04
2022-10-22T22:11:46.976Z,12.01
2022-10-22T22:14:22.797Z,11.99
2022-10-22T22:16:58.648Z,11.97
2022-10-22T22:19:34.479Z,11.96
2022-10-22T22:22:10.449Z,11.91
2022-10-22T22:24:46.554Z,11.88
2022-10-22T22:27:22.352Z,11.86
2022-10-22T22:29:59.307Z,11.85
2022-10-22T22:32:35.299Z,11.86
2022-10-22T22:35:13.219Z,11.86
2022-10-22T22:37:49.087Z,11.87
2022-10-22T22:40:49.147Z,11.88
2022-10-22T22:43:25.047Z,11.89
2022-10-22T22:46:09.746Z,11.91
2022-10-22T22:48:45.482Z,11.92
2022-10-22T22:51:21.931Z,11.93
2022-10-22T22:54:00.313Z,11.93
2022-10-22T22:56:38.140Z,11.92
2022-10-22T22:59:14.745Z,11.90
2022-10-22T23:01:52.390Z,11.86
2022-10-22T23:04:30.364Z,11.86
2022-10-22T23:07:06.410Z,11.88
2022-10-22T23:09:42.543Z,11.89
2022-10-22T23:12:18.406Z,11.90
2022-10-22T23:14:57.031Z,11.92
2022-10-22T23:20:14.170Z,11.95
2022-10-22T23:22:50.343Z,11.98
2022-10-22T23:25:27.120Z,11.99
2022-10-22T23:28:03.118Z,12.00
2022-10-22T23:30:45.594Z,12.02
2022-10-22T23:33:21.845Z,12.03
2022-10-22T23:35:57.765Z,12.04
2022-10-22T23:38:41.268Z,12.05
2022-10-22T23:41:17.745Z,12.07
2022-10-22T23:43:54.083Z,12.09
2022-10-22T23:46:30.333Z,12.11
2022-10-22T23:49:07.981Z,12.13
2022-10-22T23:51:44.386Z,12.16
2022-10-22T23:54:21.886Z,12.18
2022-10-22T23:56:58.061Z,12.20
2022-10-22T23:59:36.358Z,12.22
